sensor_id;sensor_type;location;lat;lon;timestamp;P1;durP1;ratioP1;P2;durP2;ratioP2
5060;SDS011;2549;52.128;21.068;2023-08-06T00:01:12;31.40;;;14.80;;
5060;SDS011;2549;52.128;21.068;2023-08-06T00:03:39;40.83;;;16.80;;
5060;SDS011;2549;52.128;21.068;2023-08-06T00:06:06;45.73;;;18.20;;
5060;SDS011;2549;52.128;21.068;2023-08-06T00:08:33;35.50;;;17.77;;
5060;SDS011;2549;52.128;21.068;2023-08-06T00:11:00;37.87;;;17.30;;
5060;SDS011;2549;52.128;21.068;2023-08-06T00:13:26;38.67;;;18.47;;
5060;SDS011;2549;52.128;21.068;2023-08-06T00:15:53;40.03;;;17.43;;
5060;SDS011;2549;52.128;21.068;2023-08-06T00:18:20;32.30;;;17.00;;
5060;SDS011;2549;52.128;21.068;2023-08-06T00:20:47;38.03;;;17.83;;
5060;SDS011;2549;52.128;21.068;2023-08-06T00:23:14;45.00;;;17.30;;
5060;SDS011;2549;52.128;21.068;2023-08-06T00:25:58;33.30;;;17.73;;
5060;SDS011;2549;52.128;21.068;2023-08-06T00:28:25;41.13;;;16.27;;
5060;SDS011;2549;52.128;21.068;2023-08-06T00:30:55;34.03;;;18.03;;
5060;SDS011;2549;52.128;21.068;2023-08-06T00:33:23;36.00;;;17.73;;
5060;SDS011;2549;52.128;21.068;2023-08-06T00:35:50;37.47;;;17.43;;
5060;SDS011;2549;52.128;21.068;2023-08-06T00:38:17;25.40;;;14.60;;
5060;SDS011;2549;52.128;21.068;2023-08-06T00:40:44;25.30;;;14.07;;
5060;SDS011;2549;52.128;21.068;2023-08-06T00:43:11;23.27;;;14.90;;
5060;SDS011;2549;52.128;21.068;2023-08-06T00:45:38;27.33;;;13.40;;
5060;SDS011;2549;52.128;21.068;2023-08-06T00:48:05;22.90;;;14.67;;
5060;SDS011;2549;52.128;21.068;2023-08-06T00:50:33;20.80;;;12.37;;
5060;SDS011;2549;52.128;21.068;2023-08-06T00:53:00;25.57;;;12.70;;
5060;SDS011;2549;52.128;21.068;2023-08-06T00:55:28;21.77;;;12.27;;
5060;SDS011;2549;52.128;21.068;2023-08-06T00:57:55;19.97;;;13.23;;
5060;SDS011;2549;52.128;21.068;2023-08-06T01:00:23;25.50;;;12.87;;
5060;SDS011;2549;52.128;21.068;2023-08-06T01:02:53;18.57;;;11.23;;
5060;SDS011;2549;52.128;21.068;2023-08-06T01:05:20;15.63;;;10.17;;
5060;SDS011;2549;52.128;21.068;2023-08-06T01:16:16;22.50;;;11.57;;
5060;SDS011;2549;52.128;21.068;2023-08-06T01:18:44;20.47;;;12.37;;
5060;SDS011;2549;52.128;21.068;2023-08-06T01:21:13;19.93;;;10.33;;
5060;SDS011;2549;52.128;21.068;2023-08-06T01:23:40;14.33;;;10.17;;
5060;SDS011;2549;52.128;21.068;2023-08-06T01:28:42;19.20;;;10.90;;
5060;SDS011;2549;52.128;21.068;2023-08-06T01:31:19;15.57;;;9.70;;
5060;SDS011;2549;52.128;21.068;2023-08-06T01:33:53;17.33;;;10.97;;
5060;SDS011;2549;52.128;21.068;2023-08-06T01:36:22;15.10;;;9.60;;
5060;SDS011;2549;52.128;21.068;2023-08-06T01:38:51;12.93;;;9.10;;
5060;SDS011;2549;52.128;21.068;2023-08-06T01:41:19;15.10;;;9.33;;
5060;SDS011;2549;52.128;21.068;2023-08-06T01:43:46;12.70;;;9.27;;
5060;SDS011;2549;52.128;21.068;2023-08-06T01:46:13;16.13;;;10.50;;
5060;SDS011;2549;52.128;21.068;2023-08-06T01:48:40;12.33;;;8.67;;
5060;SDS011;2549;52.128;21.068;2023-08-06T01:51:07;15.57;;;8.50;;
5060;SDS011;2549;52.128;21.068;2023-08-06T01:53:34;12.60;;;8.80;;
5060;SDS011;2549;52.128;21.068;2023-08-06T01:56:00;9.47;;;7.80;;
5060;SDS011;2549;52.128;21.068;2023-08-06T01:58:27;10.70;;;8.07;;
5060;SDS011;2549;52.128;21.068;2023-08-06T02:00:54;16.10;;;8.83;;
5060;SDS011;2549;52.128;21.068;2023-08-06T02:03:21;10.23;;;7.63;;
5060;SDS011;2549;52.128;21.068;2023-08-06T02:05:48;10.83;;;8.87;;
5060;SDS011;2549;52.128;21.068;2023-08-06T02:08:15;10.20;;;7.70;;
5060;SDS011;2549;52.128;21.068;2023-08-06T02:10:42;13.40;;;8.80;;
5060;SDS011;2549;52.128;21.068;2023-08-06T02:13:09;13.10;;;8.10;;
5060;SDS011;2549;52.128;21.068;2023-08-06T02:15:35;18.90;;;9.83;;
5060;SDS011;2549;52.128;21.068;2023-08-06T02:18:07;9.70;;;7.57;;
5060;SDS011;2549;52.128;21.068;2023-08-06T02:20:34;12.10;;;8.63;;
5060;SDS011;2549;52.128;21.068;2023-08-06T02:23:01;11.83;;;7.80;;
5060;SDS011;2549;52.128;21.068;2023-08-06T02:25:28;15.03;;;8.70;;
5060;SDS011;2549;52.128;21.068;2023-08-06T02:27:55;11.77;;;8.70;;
5060;SDS011;2549;52.128;21.068;2023-08-06T02:30:22;11.50;;;8.50;;
5060;SDS011;2549;52.128;21.068;2023-08-06T02:32:49;11.23;;;8.90;;
5060;SDS011;2549;52.128;21.068;2023-08-06T02:35:15;12.30;;;9.47;;
5060;SDS011;2549;52.128;21.068;2023-08-06T02:37:42;14.80;;;8.90;;
5060;SDS011;2549;52.128;21.068;2023-08-06T02:40:09;15.37;;;9.60;;
5060;SDS011;2549;52.128;21.068;2023-08-06T02:42:36;14.37;;;9.80;;
5060;SDS011;2549;52.128;21.068;2023-08-06T02:45:03;12.80;;;9.23;;
5060;SDS011;2549;52.128;21.068;2023-08-06T02:47:31;15.43;;;10.70;;
5060;SDS011;2549;52.128;21.068;2023-08-06T02:49:58;17.50;;;10.10;;
5060;SDS011;2549;52.128;21.068;2023-08-06T02:52:25;18.03;;;10.00;;
5060;SDS011;2549;52.128;21.068;2023-08-06T02:54:52;17.40;;;10.20;;
5060;SDS011;2549;52.128;21.068;2023-08-06T02:57:19;14.17;;;9.53;;
5060;SDS011;2549;52.128;21.068;2023-08-06T02:59:46;14.57;;;9.87;;
5060;SDS011;2549;52.128;21.068;2023-08-06T03:02:12;21.03;;;10.00;;
5060;SDS011;2549;52.128;21.068;2023-08-06T03:04:39;17.87;;;11.10;;
5060;SDS011;2549;52.128;21.068;2023-08-06T03:07:06;17.20;;;12.17;;
5060;SDS011;2549;52.128;21.068;2023-08-06T03:09:33;20.30;;;10.90;;
5060;SDS011;2549;52.128;21.068;2023-08-06T03:12:00;19.03;;;12.53;;
5060;SDS011;2549;52.128;21.068;2023-08-06T03:14:27;19.77;;;13.60;;
5060;SDS011;2549;52.128;21.068;2023-08-06T03:16:54;18.63;;;11.77;;
5060;SDS011;2549;52.128;21.068;2023-08-06T03:19:21;18.90;;;11.77;;
5060;SDS011;2549;52.128;21.068;2023-08-06T03:21:48;17.53;;;11.87;;
5060;SDS011;2549;52.128;21.068;2023-08-06T03:24:15;15.97;;;12.13;;
5060;SDS011;2549;52.128;21.068;2023-08-06T03:26:41;16.83;;;11.30;;
5060;SDS011;2549;52.128;21.068;2023-08-06T03:29:08;22.33;;;13.07;;
5060;SDS011;2549;52.128;21.068;2023-08-06T03:31:35;19.83;;;13.43;;
5060;SDS011;2549;52.128;21.068;2023-08-06T03:34:02;17.23;;;12.60;;
5060;SDS011;2549;52.128;21.068;2023-08-06T03:36:29;17.60;;;11.43;;
5060;SDS011;2549;52.128;21.068;2023-08-06T03:38:56;21.20;;;14.20;;
5060;SDS011;2549;52.128;21.068;2023-08-06T03:41:23;22.23;;;12.30;;
5060;SDS011;2549;52.128;21.068;2023-08-06T03:43:50;19.67;;;13.00;;
5060;SDS011;2549;52.128;21.068;2023-08-06T03:46:17;22.23;;;13.37;;
5060;SDS011;2549;52.128;21.068;2023-08-06T03:48:44;18.70;;;11.90;;
5060;SDS011;2549;52.128;21.068;2023-08-06T03:51:10;21.10;;;12.67;;
5060;SDS011;2549;52.128;21.068;2023-08-06T03:53:37;20.80;;;14.87;;
5060;SDS011;2549;52.128;21.068;2023-08-06T03:56:04;19.60;;;13.03;;
5060;SDS011;2549;52.128;21.068;2023-08-06T03:58:31;21.40;;;14.77;;
5060;SDS011;2549;52.128;21.068;2023-08-06T04:01:02;18.10;;;13.57;;
5060;SDS011;2549;52.128;21.068;2023-08-06T04:03:29;19.53;;;14.40;;
5060;SDS011;2549;52.128;21.068;2023-08-06T04:05:56;18.30;;;12.77;;
5060;SDS011;2549;52.128;21.068;2023-08-06T04:08:23;29.43;;;14.20;;
5060;SDS011;2549;52.128;21.068;2023-08-06T04:10:53;20.80;;;13.90;;
5060;SDS011;2549;52.128;21.068;2023-08-06T04:13:23;19.63;;;14.30;;
5060;SDS011;2549;52.128;21.068;2023-08-06T04:15:50;19.50;;;14.23;;
5060;SDS011;2549;52.128;21.068;2023-08-06T04:18:16;34.83;;;13.00;;
5060;SDS011;2549;52.128;21.068;2023-08-06T04:20:44;17.77;;;13.93;;
5060;SDS011;2549;52.128;21.068;2023-08-06T04:23:12;25.17;;;16.63;;
5060;SDS011;2549;52.128;21.068;2023-08-06T04:25:39;20.60;;;14.47;;
5060;SDS011;2549;52.128;21.068;2023-08-06T04:28:06;24.10;;;14.80;;
5060;SDS011;2549;52.128;21.068;2023-08-06T04:30:33;19.73;;;13.83;;
5060;SDS011;2549;52.128;21.068;2023-08-06T04:33:00;23.27;;;14.50;;
5060;SDS011;2549;52.128;21.068;2023-08-06T04:35:27;22.07;;;13.87;;
5060;SDS011;2549;52.128;21.068;2023-08-06T04:37:54;20.30;;;14.67;;
5060;SDS011;2549;52.128;21.068;2023-08-06T04:40:21;18.03;;;13.57;;
5060;SDS011;2549;52.128;21.068;2023-08-06T04:42:48;17.07;;;13.70;;
5060;SDS011;2549;52.128;21.068;2023-08-06T04:45:15;23.37;;;15.40;;
5060;SDS011;2549;52.128;21.068;2023-08-06T04:47:42;21.27;;;12.77;;
5060;SDS011;2549;52.128;21.068;2023-08-06T04:50:09;15.30;;;13.10;;
5060;SDS011;2549;52.128;21.068;2023-08-06T04:52:37;17.60;;;13.70;;
5060;SDS011;2549;52.128;21.068;2023-08-06T04:55:04;17.07;;;13.20;;
5060;SDS011;2549;52.128;21.068;2023-08-06T04:57:32;17.27;;;13.10;;
5060;SDS011;2549;52.128;21.068;2023-08-06T04:59:59;18.50;;;14.07;;
5060;SDS011;2549;52.128;21.068;2023-08-06T05:02:26;18.10;;;14.37;;
5060;SDS011;2549;52.128;21.068;2023-08-06T05:04:53;15.53;;;13.83;;
5060;SDS011;2549;52.128;21.068;2023-08-06T05:07:20;20.40;;;13.40;;
5060;SDS011;2549;52.128;21.068;2023-08-06T05:09:47;19.30;;;12.50;;
5060;SDS011;2549;52.128;21.068;2023-08-06T05:12:14;18.47;;;12.87;;
5060;SDS011;2549;52.128;21.068;2023-08-06T05:14:40;30.80;;;13.47;;
5060;SDS011;2549;52.128;21.068;2023-08-06T05:17:07;18.60;;;12.77;;
5060;SDS011;2549;52.128;21.068;2023-08-06T05:19:34;12.50;;;11.20;;
5060;SDS011;2549;52.128;21.068;2023-08-06T05:22:01;18.20;;;12.20;;
5060;SDS011;2549;52.128;21.068;2023-08-06T05:24:28;13.13;;;10.60;;
5060;SDS011;2549;52.128;21.068;2023-08-06T05:26:55;11.77;;;10.47;;
5060;SDS011;2549;52.128;21.068;2023-08-06T05:29:22;18.10;;;9.70;;
5060;SDS011;2549;52.128;21.068;2023-08-06T05:31:49;15.13;;;10.80;;
5060;SDS011;2549;52.128;21.068;2023-08-06T05:34:16;14.33;;;11.13;;
5060;SDS011;2549;52.128;21.068;2023-08-06T05:36:43;19.60;;;10.27;;
5060;SDS011;2549;52.128;21.068;2023-08-06T05:39:09;10.10;;;8.70;;
5060;SDS011;2549;52.128;21.068;2023-08-06T05:41:36;16.90;;;8.77;;
5060;SDS011;2549;52.128;21.068;2023-08-06T05:44:03;10.80;;;9.70;;
5060;SDS011;2549;52.128;21.068;2023-08-06T05:46:30;12.60;;;8.30;;
5060;SDS011;2549;52.128;21.068;2023-08-06T05:48:57;12.33;;;9.87;;
5060;SDS011;2549;52.128;21.068;2023-08-06T05:51:25;9.63;;;8.63;;
5060;SDS011;2549;52.128;21.068;2023-08-06T05:53:53;11.00;;;9.33;;
5060;SDS011;2549;52.128;21.068;2023-08-06T05:56:20;11.43;;;8.77;;
5060;SDS011;2549;52.128;21.068;2023-08-06T05:58:47;11.30;;;9.03;;
5060;SDS011;2549;52.128;21.068;2023-08-06T06:01:16;11.57;;;8.70;;
5060;SDS011;2549;52.128;21.068;2023-08-06T06:03:43;9.23;;;8.13;;
5060;SDS011;2549;52.128;21.068;2023-08-06T06:06:10;14.70;;;8.27;;
5060;SDS011;2549;52.128;21.068;2023-08-06T06:08:36;10.60;;;8.10;;
5060;SDS011;2549;52.128;21.068;2023-08-06T06:11:03;19.77;;;9.53;;
5060;SDS011;2549;52.128;21.068;2023-08-06T06:13:30;12.00;;;8.73;;
5060;SDS011;2549;52.128;21.068;2023-08-06T06:15:57;9.80;;;8.10;;
5060;SDS011;2549;52.128;21.068;2023-08-06T06:18:24;8.97;;;7.90;;
5060;SDS011;2549;52.128;21.068;2023-08-06T06:20:51;8.13;;;7.40;;
5060;SDS011;2549;52.128;21.068;2023-08-06T06:23:18;12.27;;;7.70;;
5060;SDS011;2549;52.128;21.068;2023-08-06T06:25:49;14.00;;;7.97;;
5060;SDS011;2549;52.128;21.068;2023-08-06T06:28:19;12.00;;;8.57;;
5060;SDS011;2549;52.128;21.068;2023-08-06T06:30:46;8.73;;;7.83;;
5060;SDS011;2549;52.128;21.068;2023-08-06T06:33:14;13.83;;;9.00;;
5060;SDS011;2549;52.128;21.068;2023-08-06T06:35:41;12.93;;;9.30;;
5060;SDS011;2549;52.128;21.068;2023-08-06T06:38:08;15.13;;;7.90;;
5060;SDS011;2549;52.128;21.068;2023-08-06T06:40:35;9.90;;;7.60;;
5060;SDS011;2549;52.128;21.068;2023-08-06T06:43:01;9.37;;;7.43;;
5060;SDS011;2549;52.128;21.068;2023-08-06T06:45:28;17.23;;;8.50;;
5060;SDS011;2549;52.128;21.068;2023-08-06T06:47:55;12.70;;;9.17;;
5060;SDS011;2549;52.128;21.068;2023-08-06T06:50:22;12.50;;;7.67;;
5060;SDS011;2549;52.128;21.068;2023-08-06T06:52:50;10.93;;;8.27;;
5060;SDS011;2549;52.128;21.068;2023-08-06T06:55:17;16.97;;;8.13;;
5060;SDS011;2549;52.128;21.068;2023-08-06T06:57:43;9.40;;;7.33;;
5060;SDS011;2549;52.128;21.068;2023-08-06T07:00:10;18.20;;;9.23;;
5060;SDS011;2549;52.128;21.068;2023-08-06T07:02:37;9.07;;;7.93;;
5060;SDS011;2549;52.128;21.068;2023-08-06T07:05:05;10.90;;;7.47;;
5060;SDS011;2549;52.128;21.068;2023-08-06T07:07:33;8.43;;;7.63;;
5060;SDS011;2549;52.128;21.068;2023-08-06T07:10:01;13.73;;;8.13;;
5060;SDS011;2549;52.128;21.068;2023-08-06T07:12:28;10.70;;;8.77;;
5060;SDS011;2549;52.128;21.068;2023-08-06T07:14:55;19.97;;;7.67;;
5060;SDS011;2549;52.128;21.068;2023-08-06T07:17:22;11.73;;;9.00;;
5060;SDS011;2549;52.128;21.068;2023-08-06T07:19:49;9.47;;;7.43;;
5060;SDS011;2549;52.128;21.068;2023-08-06T07:22:16;12.03;;;7.83;;
5060;SDS011;2549;52.128;21.068;2023-08-06T07:24:43;9.40;;;8.50;;
5060;SDS011;2549;52.128;21.068;2023-08-06T07:27:10;16.97;;;8.00;;
5060;SDS011;2549;52.128;21.068;2023-08-06T07:29:37;9.83;;;8.30;;
5060;SDS011;2549;52.128;21.068;2023-08-06T07:32:05;13.50;;;8.03;;
5060;SDS011;2549;52.128;21.068;2023-08-06T07:34:33;13.33;;;7.50;;
5060;SDS011;2549;52.128;21.068;2023-08-06T07:37:00;8.20;;;7.40;;
5060;SDS011;2549;52.128;21.068;2023-08-06T07:39:27;15.33;;;7.33;;
5060;SDS011;2549;52.128;21.068;2023-08-06T07:41:54;8.57;;;7.63;;
5060;SDS011;2549;52.128;21.068;2023-08-06T07:44:21;8.50;;;7.50;;
5060;SDS011;2549;52.128;21.068;2023-08-06T07:46:48;9.40;;;7.30;;
5060;SDS011;2549;52.128;21.068;2023-08-06T07:49:15;11.83;;;7.13;;
5060;SDS011;2549;52.128;21.068;2023-08-06T07:51:42;15.50;;;8.30;;
5060;SDS011;2549;52.128;21.068;2023-08-06T07:54:09;10.20;;;7.60;;
5060;SDS011;2549;52.128;21.068;2023-08-06T07:56:36;9.53;;;7.03;;
5060;SDS011;2549;52.128;21.068;2023-08-06T07:59:03;13.97;;;9.07;;
5060;SDS011;2549;52.128;21.068;2023-08-06T08:01:30;10.63;;;8.20;;
5060;SDS011;2549;52.128;21.068;2023-08-06T08:03:57;10.17;;;9.10;;
5060;SDS011;2549;52.128;21.068;2023-08-06T08:06:24;14.40;;;7.53;;
5060;SDS011;2549;52.128;21.068;2023-08-06T08:08:51;11.17;;;8.10;;
5060;SDS011;2549;52.128;21.068;2023-08-06T08:11:18;16.23;;;9.67;;
5060;SDS011;2549;52.128;21.068;2023-08-06T08:13:45;15.07;;;7.63;;
5060;SDS011;2549;52.128;21.068;2023-08-06T08:16:11;20.77;;;9.30;;
5060;SDS011;2549;52.128;21.068;2023-08-06T08:18:38;18.43;;;8.37;;
5060;SDS011;2549;52.128;21.068;2023-08-06T08:21:05;10.23;;;7.63;;
5060;SDS011;2549;52.128;21.068;2023-08-06T08:23:32;14.80;;;8.30;;
5060;SDS011;2549;52.128;21.068;2023-08-06T08:25:59;8.37;;;7.50;;
5060;SDS011;2549;52.128;21.068;2023-08-06T08:28:28;10.10;;;7.63;;
5060;SDS011;2549;52.128;21.068;2023-08-06T08:30:55;12.13;;;7.93;;
5060;SDS011;2549;52.128;21.068;2023-08-06T08:33:22;12.37;;;8.83;;
5060;SDS011;2549;52.128;21.068;2023-08-06T08:35:49;19.47;;;7.57;;
5060;SDS011;2549;52.128;21.068;2023-08-06T08:38:16;14.93;;;7.53;;
5060;SDS011;2549;52.128;21.068;2023-08-06T08:40:45;14.53;;;8.60;;
5060;SDS011;2549;52.128;21.068;2023-08-06T08:43:14;9.70;;;6.83;;
5060;SDS011;2549;52.128;21.068;2023-08-06T08:45:42;6.33;;;5.80;;
5060;SDS011;2549;52.128;21.068;2023-08-06T08:48:11;7.70;;;6.40;;
5060;SDS011;2549;52.128;21.068;2023-08-06T08:50:42;7.70;;;6.20;;
5060;SDS011;2549;52.128;21.068;2023-08-06T08:53:13;12.93;;;6.57;;
5060;SDS011;2549;52.128;21.068;2023-08-06T08:55:42;9.00;;;6.97;;
5060;SDS011;2549;52.128;21.068;2023-08-06T08:58:10;11.77;;;7.10;;
5060;SDS011;2549;52.128;21.068;2023-08-06T09:00:37;11.80;;;6.13;;
5060;SDS011;2549;52.128;21.068;2023-08-06T09:03:06;16.00;;;6.50;;
5060;SDS011;2549;52.128;21.068;2023-08-06T09:05:34;11.73;;;6.70;;
5060;SDS011;2549;52.128;21.068;2023-08-06T09:08:03;9.43;;;6.13;;
5060;SDS011;2549;52.128;21.068;2023-08-06T09:10:31;7.50;;;6.73;;
5060;SDS011;2549;52.128;21.068;2023-08-06T09:12:58;8.53;;;7.00;;
5060;SDS011;2549;52.128;21.068;2023-08-06T09:15:27;14.83;;;6.77;;
5060;SDS011;2549;52.128;21.068;2023-08-06T09:17:54;12.27;;;6.93;;
5060;SDS011;2549;52.128;21.068;2023-08-06T09:20:21;9.20;;;6.17;;
5060;SDS011;2549;52.128;21.068;2023-08-06T09:22:48;8.90;;;6.97;;
5060;SDS011;2549;52.128;21.068;2023-08-06T09:25:22;11.23;;;6.03;;
5060;SDS011;2549;52.128;21.068;2023-08-06T09:27:51;8.73;;;6.20;;
5060;SDS011;2549;52.128;21.068;2023-08-06T09:30:29;6.73;;;5.73;;
5060;SDS011;2549;52.128;21.068;2023-08-06T09:32:58;9.80;;;5.90;;
5060;SDS011;2549;52.128;21.068;2023-08-06T09:35:27;15.70;;;5.60;;
5060;SDS011;2549;52.128;21.068;2023-08-06T09:38:05;7.63;;;6.00;;
5060;SDS011;2549;52.128;21.068;2023-08-06T09:40:37;8.73;;;5.57;;
5060;SDS011;2549;52.128;21.068;2023-08-06T09:43:05;6.70;;;5.53;;
5060;SDS011;2549;52.128;21.068;2023-08-06T09:45:36;8.53;;;5.90;;
5060;SDS011;2549;52.128;21.068;2023-08-06T09:48:08;29.93;;;6.30;;
5060;SDS011;2549;52.128;21.068;2023-08-06T09:50:36;6.73;;;5.43;;
5060;SDS011;2549;52.128;21.068;2023-08-06T09:53:05;7.00;;;6.10;;
5060;SDS011;2549;52.128;21.068;2023-08-06T09:55:33;10.50;;;6.23;;
5060;SDS011;2549;52.128;21.068;2023-08-06T09:58:01;5.60;;;5.20;;
5060;SDS011;2549;52.128;21.068;2023-08-06T10:00:28;6.13;;;4.70;;
5060;SDS011;2549;52.128;21.068;2023-08-06T10:03:00;10.30;;;5.80;;
5060;SDS011;2549;52.128;21.068;2023-08-06T10:05:27;9.70;;;5.33;;
5060;SDS011;2549;52.128;21.068;2023-08-06T10:07:56;9.93;;;5.10;;
5060;SDS011;2549;52.128;21.068;2023-08-06T10:10:23;8.70;;;5.33;;
5060;SDS011;2549;52.128;21.068;2023-08-06T10:12:54;6.50;;;4.60;;
5060;SDS011;2549;52.128;21.068;2023-08-06T10:15:26;5.80;;;4.50;;
5060;SDS011;2549;52.128;21.068;2023-08-06T10:17:56;7.10;;;4.50;;
5060;SDS011;2549;52.128;21.068;2023-08-06T10:20:25;9.63;;;5.53;;
5060;SDS011;2549;52.128;21.068;2023-08-06T10:23:03;12.20;;;6.10;;
5060;SDS011;2549;52.128;21.068;2023-08-06T10:25:31;13.93;;;7.27;;
5060;SDS011;2549;52.128;21.068;2023-08-06T10:28:11;9.30;;;5.47;;
5060;SDS011;2549;52.128;21.068;2023-08-06T10:30:45;8.27;;;5.03;;
5060;SDS011;2549;52.128;21.068;2023-08-06T10:33:13;5.90;;;5.20;;
5060;SDS011;2549;52.128;21.068;2023-08-06T10:35:47;5.57;;;5.07;;
5060;SDS011;2549;52.128;21.068;2023-08-06T10:38:16;7.50;;;4.63;;
5060;SDS011;2549;52.128;21.068;2023-08-06T10:43:27;6.23;;;4.80;;
5060;SDS011;2549;52.128;21.068;2023-08-06T10:45:59;6.73;;;4.27;;
5060;SDS011;2549;52.128;21.068;2023-08-06T10:48:32;4.80;;;4.40;;
5060;SDS011;2549;52.128;21.068;2023-08-06T10:51:00;4.93;;;4.53;;
5060;SDS011;2549;52.128;21.068;2023-08-06T10:53:28;7.97;;;5.20;;
5060;SDS011;2549;52.128;21.068;2023-08-06T10:55:59;5.13;;;4.27;;
5060;SDS011;2549;52.128;21.068;2023-08-06T10:58:33;6.27;;;5.10;;
5060;SDS011;2549;52.128;21.068;2023-08-06T11:01:00;5.13;;;4.13;;
5060;SDS011;2549;52.128;21.068;2023-08-06T11:03:27;21.60;;;4.57;;
5060;SDS011;2549;52.128;21.068;2023-08-06T11:05:54;4.50;;;4.10;;
5060;SDS011;2549;52.128;21.068;2023-08-06T11:08:28;10.57;;;4.03;;
5060;SDS011;2549;52.128;21.068;2023-08-06T11:10:56;15.03;;;5.10;;
5060;SDS011;2549;52.128;21.068;2023-08-06T11:13:43;5.87;;;5.00;;
5060;SDS011;2549;52.128;21.068;2023-08-06T11:16:16;6.50;;;4.20;;
5060;SDS011;2549;52.128;21.068;2023-08-06T11:18:45;5.10;;;4.00;;
5060;SDS011;2549;52.128;21.068;2023-08-06T11:21:12;10.60;;;4.73;;
5060;SDS011;2549;52.128;21.068;2023-08-06T11:23:40;14.10;;;4.93;;
5060;SDS011;2549;52.128;21.068;2023-08-06T11:26:07;4.53;;;3.90;;
5060;SDS011;2549;52.128;21.068;2023-08-06T11:28:34;3.67;;;3.47;;
5060;SDS011;2549;52.128;21.068;2023-08-06T11:31:01;6.30;;;4.27;;
5060;SDS011;2549;52.128;21.068;2023-08-06T11:33:30;5.03;;;3.90;;
5060;SDS011;2549;52.128;21.068;2023-08-06T11:35:58;6.30;;;4.80;;
5060;SDS011;2549;52.128;21.068;2023-08-06T11:38:27;5.27;;;4.63;;
5060;SDS011;2549;52.128;21.068;2023-08-06T11:40:55;5.03;;;4.00;;
5060;SDS011;2549;52.128;21.068;2023-08-06T11:43:22;6.13;;;4.27;;
5060;SDS011;2549;52.128;21.068;2023-08-06T11:45:50;5.50;;;4.47;;
5060;SDS011;2549;52.128;21.068;2023-08-06T11:48:18;7.27;;;5.50;;
5060;SDS011;2549;52.128;21.068;2023-08-06T11:50:45;6.83;;;4.27;;
5060;SDS011;2549;52.128;21.068;2023-08-06T11:53:13;5.10;;;3.70;;
5060;SDS011;2549;52.128;21.068;2023-08-06T11:55:41;6.13;;;3.60;;
5060;SDS011;2549;52.128;21.068;2023-08-06T11:58:09;7.73;;;3.70;;
5060;SDS011;2549;52.128;21.068;2023-08-06T12:00:42;7.60;;;3.37;;
5060;SDS011;2549;52.128;21.068;2023-08-06T12:03:09;3.73;;;3.40;;
5060;SDS011;2549;52.128;21.068;2023-08-06T12:05:37;6.90;;;4.30;;
5060;SDS011;2549;52.128;21.068;2023-08-06T12:08:05;5.10;;;4.60;;
5060;SDS011;2549;52.128;21.068;2023-08-06T12:10:32;6.50;;;5.13;;
5060;SDS011;2549;52.128;21.068;2023-08-06T12:12:59;5.10;;;4.60;;
5060;SDS011;2549;52.128;21.068;2023-08-06T12:15:27;7.53;;;4.70;;
5060;SDS011;2549;52.128;21.068;2023-08-06T12:17:59;7.40;;;4.10;;
5060;SDS011;2549;52.128;21.068;2023-08-06T12:20:26;9.00;;;4.03;;
5060;SDS011;2549;52.128;21.068;2023-08-06T12:22:55;6.77;;;4.20;;
5060;SDS011;2549;52.128;21.068;2023-08-06T12:25:22;5.13;;;4.73;;
5060;SDS011;2549;52.128;21.068;2023-08-06T12:27:50;8.17;;;4.90;;
5060;SDS011;2549;52.128;21.068;2023-08-06T12:30:17;9.43;;;4.63;;
5060;SDS011;2549;52.128;21.068;2023-08-06T12:32:44;5.03;;;4.63;;
5060;SDS011;2549;52.128;21.068;2023-08-06T12:35:12;5.40;;;4.20;;
5060;SDS011;2549;52.128;21.068;2023-08-06T12:37:40;7.67;;;4.77;;
5060;SDS011;2549;52.128;21.068;2023-08-06T12:40:09;5.33;;;4.50;;
5060;SDS011;2549;52.128;21.068;2023-08-06T12:42:57;5.00;;;4.60;;
5060;SDS011;2549;52.128;21.068;2023-08-06T12:45:28;5.70;;;4.10;;
5060;SDS011;2549;52.128;21.068;2023-08-06T12:47:55;8.00;;;5.37;;
5060;SDS011;2549;52.128;21.068;2023-08-06T12:50:23;4.57;;;4.27;;
5060;SDS011;2549;52.128;21.068;2023-08-06T12:52:51;6.33;;;4.60;;
5060;SDS011;2549;52.128;21.068;2023-08-06T12:55:17;9.37;;;4.53;;
5060;SDS011;2549;52.128;21.068;2023-08-06T12:57:44;10.33;;;4.20;;
5060;SDS011;2549;52.128;21.068;2023-08-06T13:00:23;5.13;;;4.73;;
5060;SDS011;2549;52.128;21.068;2023-08-06T13:02:52;5.40;;;4.90;;
5060;SDS011;2549;52.128;21.068;2023-08-06T13:05:19;6.30;;;4.80;;
5060;SDS011;2549;52.128;21.068;2023-08-06T13:07:46;4.60;;;4.30;;
5060;SDS011;2549;52.128;21.068;2023-08-06T13:10:13;6.80;;;4.70;;
5060;SDS011;2549;52.128;21.068;2023-08-06T13:12:40;4.63;;;4.20;;
5060;SDS011;2549;52.128;21.068;2023-08-06T13:15:07;12.40;;;4.60;;
5060;SDS011;2549;52.128;21.068;2023-08-06T13:17:34;4.53;;;3.73;;
5060;SDS011;2549;52.128;21.068;2023-08-06T13:20:02;5.83;;;4.33;;
5060;SDS011;2549;52.128;21.068;2023-08-06T13:22:29;6.33;;;4.60;;
5060;SDS011;2549;52.128;21.068;2023-08-06T13:24:56;11.20;;;4.23;;
5060;SDS011;2549;52.128;21.068;2023-08-06T13:27:23;5.10;;;4.70;;
5060;SDS011;2549;52.128;21.068;2023-08-06T13:29:50;4.50;;;4.20;;
5060;SDS011;2549;52.128;21.068;2023-08-06T13:32:17;4.17;;;3.67;;
5060;SDS011;2549;52.128;21.068;2023-08-06T13:34:44;4.30;;;4.00;;
5060;SDS011;2549;52.128;21.068;2023-08-06T13:37:11;5.17;;;4.70;;
5060;SDS011;2549;52.128;21.068;2023-08-06T13:39:37;6.40;;;4.10;;
5060;SDS011;2549;52.128;21.068;2023-08-06T13:42:06;7.63;;;4.60;;
5060;SDS011;2549;52.128;21.068;2023-08-06T13:44:50;5.10;;;4.17;;
5060;SDS011;2549;52.128;21.068;2023-08-06T13:47:17;4.87;;;4.47;;
5060;SDS011;2549;52.128;21.068;2023-08-06T13:49:44;4.73;;;4.40;;
5060;SDS011;2549;52.128;21.068;2023-08-06T13:52:29;4.67;;;4.37;;
5060;SDS011;2549;52.128;21.068;2023-08-06T13:54:56;5.20;;;4.70;;
5060;SDS011;2549;52.128;21.068;2023-08-06T13:57:22;5.43;;;4.00;;
5060;SDS011;2549;52.128;21.068;2023-08-06T13:59:49;9.70;;;4.07;;
5060;SDS011;2549;52.128;21.068;2023-08-06T14:02:16;5.03;;;3.70;;
5060;SDS011;2549;52.128;21.068;2023-08-06T14:04:43;4.40;;;4.10;;
5060;SDS011;2549;52.128;21.068;2023-08-06T14:07:13;4.47;;;4.17;;
5060;SDS011;2549;52.128;21.068;2023-08-06T14:09:40;4.47;;;4.10;;
5060;SDS011;2549;52.128;21.068;2023-08-06T14:12:08;4.30;;;4.10;;
5060;SDS011;2549;52.128;21.068;2023-08-06T14:14:35;5.67;;;4.70;;
5060;SDS011;2549;52.128;21.068;2023-08-06T14:17:02;5.13;;;4.27;;
5060;SDS011;2549;52.128;21.068;2023-08-06T14:19:30;4.23;;;3.87;;
5060;SDS011;2549;52.128;21.068;2023-08-06T14:21:57;4.07;;;3.77;;
5060;SDS011;2549;52.128;21.068;2023-08-06T14:24:24;4.03;;;3.73;;
5060;SDS011;2549;52.128;21.068;2023-08-06T14:26:52;3.40;;;3.20;;
5060;SDS011;2549;52.128;21.068;2023-08-06T14:29:20;3.43;;;3.23;;
5060;SDS011;2549;52.128;21.068;2023-08-06T14:31:47;3.60;;;3.30;;
5060;SDS011;2549;52.128;21.068;2023-08-06T14:34:14;3.63;;;3.10;;
5060;SDS011;2549;52.128;21.068;2023-08-06T14:36:41;3.37;;;3.17;;
5060;SDS011;2549;52.128;21.068;2023-08-06T14:39:08;3.73;;;3.43;;
5060;SDS011;2549;52.128;21.068;2023-08-06T14:41:34;4.40;;;2.97;;
5060;SDS011;2549;52.128;21.068;2023-08-06T14:44:01;7.97;;;3.67;;
5060;SDS011;2549;52.128;21.068;2023-08-06T14:46:28;3.37;;;3.17;;
5060;SDS011;2549;52.128;21.068;2023-08-06T14:48:55;3.47;;;3.17;;
5060;SDS011;2549;52.128;21.068;2023-08-06T14:51:22;3.00;;;2.67;;
5060;SDS011;2549;52.128;21.068;2023-08-06T14:53:49;4.13;;;2.80;;
5060;SDS011;2549;52.128;21.068;2023-08-06T14:56:16;5.17;;;3.20;;
5060;SDS011;2549;52.128;21.068;2023-08-06T14:58:43;2.80;;;2.40;;
5060;SDS011;2549;52.128;21.068;2023-08-06T15:01:09;3.00;;;2.80;;
5060;SDS011;2549;52.128;21.068;2023-08-06T15:03:36;4.33;;;2.67;;
5060;SDS011;2549;52.128;21.068;2023-08-06T15:06:03;2.90;;;2.70;;
5060;SDS011;2549;52.128;21.068;2023-08-06T15:08:30;2.40;;;2.30;;